createdAt,value
2017-09-08T00:01:55.162Z,5.60
2017-09-08T00:04:23.090Z,6.67
2017-09-08T00:06:51.045Z,6.23
2017-09-08T00:09:18.943Z,5.90
2017-09-08T00:11:47.001Z,5.87
2017-09-08T00:14:15.037Z,5.53
2017-09-08T00:16:43.055Z,6.30
2017-09-08T00:19:11.086Z,6.40
2017-09-08T00:21:39.143Z,6.27
2017-09-08T00:24:07.157Z,6.60
2017-09-08T00:26:35.118Z,6.80
2017-09-08T00:29:03.166Z,6.50
2017-09-08T00:31:31.208Z,7.10
2017-09-08T00:33:59.234Z,6.23
2017-09-08T00:36:27.273Z,6.40
2017-09-08T00:38:55.172Z,7.43
2017-09-08T00:41:23.172Z,6.57
2017-09-08T00:43:51.078Z,6.70
2017-09-08T00:46:18.933Z,7.30
2017-09-08T00:48:46.945Z,7.13
2017-09-08T00:51:14.958Z,6.60
2017-09-08T00:53:43.071Z,7.87
2017-09-08T00:56:11.096Z,7.40
2017-09-08T00:58:39.137Z,6.60
2017-09-08T01:01:07.165Z,7.50
2017-09-08T01:03:35.230Z,7.60
2017-09-08T01:06:03.271Z,6.97
2017-09-08T01:08:31.137Z,7.40
2017-09-08T01:10:59.232Z,7.40
2017-09-08T01:13:27.228Z,7.87
2017-09-08T01:15:55.249Z,7.77
2017-09-08T01:18:23.115Z,7.70
2017-09-08T01:20:51.140Z,7.03
2017-09-08T01:23:19.002Z,7.60
2017-09-08T01:25:47.025Z,8.63
2017-09-08T01:28:15.025Z,7.80
2017-09-08T01:30:43.078Z,7.33
2017-09-08T01:33:11.033Z,9.20
2017-09-08T01:35:38.979Z,9.17
2017-09-08T01:38:06.819Z,10.60
2017-09-08T01:40:34.840Z,9.80
2017-09-08T01:43:02.898Z,9.07
2017-09-08T01:45:30.910Z,9.20
2017-09-08T01:47:58.791Z,8.70
2017-09-08T01:50:26.902Z,9.43
2017-09-08T01:52:55.950Z,9.97
2017-09-08T01:55:24.001Z,10.10
2017-09-08T01:57:52.048Z,9.60
2017-09-08T02:00:20.103Z,9.90
2017-09-08T02:02:48.143Z,9.47
2017-09-08T02:05:16.168Z,11.30
2017-09-08T02:07:44.226Z,10.00
2017-09-08T02:10:12.198Z,9.93
2017-09-08T02:12:40.218Z,10.47
2017-09-08T02:15:08.262Z,10.70
2017-09-08T02:17:36.376Z,10.30
2017-09-08T02:20:04.435Z,9.93
2017-09-08T02:22:32.457Z,10.40
2017-09-08T02:25:00.510Z,10.43
2017-09-08T02:27:28.526Z,11.20
2017-09-08T02:29:56.515Z,11.20
2017-09-08T02:32:24.522Z,12.07
2017-09-08T02:34:52.544Z,10.90
2017-09-08T02:37:20.503Z,10.80
2017-09-08T02:39:48.537Z,11.70
2017-09-08T02:42:16.581Z,11.23
2017-09-08T02:44:44.625Z,12.10
2017-09-08T02:47:12.667Z,11.17
2017-09-08T02:49:40.707Z,11.20
2017-09-08T02:52:08.757Z,11.07
2017-09-08T02:54:36.788Z,11.30
2017-09-08T02:57:04.646Z,12.03
2017-09-08T02:59:32.656Z,11.47
2017-09-08T03:02:00.706Z,13.00
2017-09-08T03:04:28.732Z,11.77
2017-09-08T03:06:56.472Z,11.43
2017-09-08T03:09:24.237Z,12.03
2017-09-08T03:11:52.112Z,11.53
2017-09-08T03:14:20.064Z,12.03
2017-09-08T03:16:47.905Z,11.60
2017-09-08T03:19:15.841Z,11.87
2017-09-08T03:21:43.701Z,11.67
2017-09-08T03:24:11.508Z,11.70
2017-09-08T03:26:39.430Z,12.30
2017-09-08T03:29:07.176Z,12.40
2017-09-08T03:31:35.055Z,12.70
2017-09-08T03:34:02.913Z,11.70
2017-09-08T03:36:30.833Z,12.27
2017-09-08T03:38:58.570Z,12.57
2017-09-08T03:41:26.542Z,12.00
2017-09-08T03:43:54.468Z,13.10
2017-09-08T03:46:22.232Z,11.97
2017-09-08T03:48:49.972Z,12.50
2017-09-08T03:51:17.899Z,11.63
2017-09-08T03:53:45.818Z,12.37
2017-09-08T03:56:13.742Z,13.50
2017-09-08T03:58:41.484Z,11.67
2017-09-08T04:01:09.421Z,11.70
2017-09-08T04:03:37.378Z,12.33
2017-09-08T04:06:05.284Z,11.80
2017-09-08T04:08:33.147Z,13.20
2017-09-08T04:11:01.080Z,11.80
2017-09-08T04:13:29.016Z,12.00
2017-09-08T04:15:56.944Z,12.17
2017-09-08T04:18:24.761Z,13.10
2017-09-08T04:20:52.713Z,11.83
2017-09-08T04:23:20.463Z,11.67
2017-09-08T04:25:48.418Z,12.20
2017-09-08T04:28:16.279Z,12.10
2017-09-08T04:30:44.144Z,11.67
2017-09-08T04:33:11.886Z,12.00
2017-09-08T04:35:39.768Z,12.00
2017-09-08T04:38:07.625Z,12.13
2017-09-08T04:40:35.457Z,11.50
2017-09-08T04:43:03.244Z,12.27
2017-09-08T04:45:31.090Z,12.07
2017-09-08T04:47:58.825Z,11.40
2017-09-08T04:50:26.585Z,11.83
2017-09-08T04:52:54.310Z,12.50
2017-09-08T04:55:22.101Z,12.37
2017-09-08T04:57:49.924Z,12.33
2017-09-08T05:00:17.808Z,12.83
2017-09-08T05:02:45.617Z,10.57
2017-09-08T05:05:13.378Z,11.90
2017-09-08T05:07:41.089Z,11.53
2017-09-08T05:10:08.878Z,11.60
2017-09-08T05:12:36.631Z,10.57
2017-09-08T05:15:04.463Z,11.70
2017-09-08T05:17:32.210Z,11.07
2017-09-08T05:19:59.992Z,10.80
2017-09-08T05:22:27.740Z,11.10
2017-09-08T05:24:55.508Z,11.80
2017-09-08T05:27:23.227Z,10.60
2017-09-08T05:29:50.972Z,10.87
2017-09-08T05:32:18.714Z,10.43
2017-09-08T05:34:46.499Z,10.80
2017-09-08T05:37:14.232Z,9.83
2017-09-08T05:39:43.016Z,10.43
2017-09-08T05:42:10.796Z,9.70
2017-09-08T05:44:38.536Z,11.03
2017-09-08T05:47:06.313Z,10.07
2017-09-08T05:49:34.077Z,11.10
2017-09-08T05:52:01.902Z,10.30
2017-09-08T05:54:29.657Z,9.87
2017-09-08T05:56:57.664Z,9.73
2017-09-08T05:59:25.619Z,10.37
2017-09-08T06:01:53.416Z,10.63
2017-09-08T06:04:21.154Z,9.67
2017-09-08T06:06:48.987Z,10.60
2017-09-08T06:09:16.739Z,10.03
2017-09-08T06:11:44.580Z,9.83
2017-09-08T06:14:12.352Z,9.73
2017-09-08T06:16:40.132Z,10.53
2017-09-08T06:19:07.872Z,9.63
2017-09-08T06:21:35.683Z,9.77
2017-09-08T06:24:03.545Z,9.00
2017-09-08T06:26:31.479Z,9.13
2017-09-08T06:28:59.458Z,9.90
2017-09-08T06:31:27.341Z,9.80
2017-09-08T06:33:55.284Z,9.97
2017-09-08T06:36:23.244Z,9.30
2017-09-08T06:38:51.164Z,9.20
2017-09-08T06:41:19.138Z,9.17
2017-09-08T06:43:46.894Z,9.20
2017-09-08T06:46:14.672Z,10.07
2017-09-08T06:48:42.504Z,9.40
2017-09-08T06:51:10.486Z,10.00
2017-09-08T06:53:38.414Z,8.60
2017-09-08T06:56:06.338Z,9.57
2017-09-08T06:58:34.198Z,8.90
2017-09-08T07:01:02.164Z,9.13
2017-09-08T07:03:29.937Z,9.57
2017-09-08T07:05:57.893Z,8.53
2017-09-08T07:08:25.669Z,8.83
2017-09-08T07:10:53.500Z,9.13
2017-09-08T07:13:21.317Z,8.77
2017-09-08T07:15:50.200Z,8.60
2017-09-08T07:18:17.968Z,8.70
2017-09-08T07:20:45.753Z,9.07
2017-09-08T07:23:13.711Z,8.80
2017-09-08T07:25:41.630Z,9.17
2017-09-08T07:28:09.659Z,8.30
2017-09-08T07:30:37.455Z,9.27
2017-09-08T07:33:05.306Z,8.60
2017-09-08T07:35:33.103Z,8.80
2017-09-08T07:38:01.044Z,9.50
2017-09-08T07:40:28.828Z,8.37
2017-09-08T07:42:56.730Z,10.17
2017-09-08T07:45:24.550Z,9.27
2017-09-08T07:47:52.480Z,10.40
2017-09-08T07:50:20.205Z,9.93
2017-09-08T07:52:47.977Z,9.90
2017-09-08T07:55:15.795Z,10.87
2017-09-08T07:57:43.629Z,10.70
2017-09-08T08:00:11.594Z,10.17
2017-09-08T08:02:39.381Z,9.90
2017-09-08T08:05:07.218Z,10.20
2017-09-08T08:07:34.993Z,10.57
2017-09-08T08:10:02.777Z,9.93
2017-09-08T08:12:30.563Z,10.37
2017-09-08T08:14:58.400Z,10.40
2017-09-08T08:17:26.189Z,10.20
2017-09-08T08:19:53.974Z,10.47
2017-09-08T08:22:21.729Z,9.60
2017-09-08T08:24:49.575Z,9.67
2017-09-08T08:27:17.317Z,10.23
2017-09-08T08:29:45.137Z,9.60
2017-09-08T08:32:12.885Z,8.47
2017-09-08T08:34:40.670Z,8.93
2017-09-08T08:37:08.422Z,8.97
2017-09-08T08:39:36.281Z,8.43
2017-09-08T08:42:04.128Z,9.63
2017-09-08T08:44:31.937Z,8.93
2017-09-08T08:46:59.675Z,8.53
2017-09-08T08:49:27.482Z,10.03
2017-09-08T08:51:58.759Z,8.13
2017-09-08T08:54:26.758Z,8.60
2017-09-08T08:56:54.493Z,9.10
2017-09-08T08:59:22.223Z,9.50
2017-09-08T09:01:50.026Z,8.70
2017-09-08T09:04:17.860Z,8.90
2017-09-08T09:06:45.629Z,8.37
2017-09-08T09:09:13.593Z,8.83
2017-09-08T09:11:41.371Z,8.93
2017-09-08T09:14:09.221Z,8.00
2017-09-08T09:16:37.017Z,9.17
2017-09-08T09:19:04.748Z,8.30
2017-09-08T09:21:32.528Z,8.17
2017-09-08T09:24:00.360Z,9.00
2017-09-08T09:26:28.148Z,7.83
2017-09-08T09:28:56.038Z,7.93
2017-09-08T09:31:23.809Z,7.80
2017-09-08T09:33:51.561Z,7.50
2017-09-08T09:36:19.434Z,7.40
2017-09-08T09:38:47.264Z,8.17
2017-09-08T09:41:15.153Z,7.53
2017-09-08T09:43:42.880Z,7.87
2017-09-08T09:46:10.728Z,8.00
2017-09-08T09:48:38.493Z,6.90
2017-09-08T09:51:06.290Z,6.90
2017-09-08T09:53:34.023Z,7.97
2017-09-08T09:56:01.877Z,7.33
2017-09-08T09:58:29.700Z,7.50
2017-09-08T10:00:57.546Z,7.70
2017-09-08T10:03:25.353Z,7.23
2017-09-08T10:05:53.197Z,7.30
2017-09-08T10:08:21.016Z,7.30
2017-09-08T10:10:48.805Z,7.47
2017-09-08T10:13:16.608Z,7.57
2017-09-08T10:15:44.358Z,7.20
2017-09-08T10:18:12.156Z,7.07
2017-09-08T10:20:39.874Z,7.13
2017-09-08T10:23:07.663Z,7.80
2017-09-08T10:25:35.369Z,7.97
2017-09-08T10:28:03.150Z,6.67
2017-09-08T10:30:30.962Z,7.53
2017-09-08T10:32:58.771Z,7.60
2017-09-08T10:35:26.597Z,6.40
2017-09-08T10:37:54.323Z,7.50
2017-09-08T10:40:22.085Z,7.13
2017-09-08T10:42:49.802Z,7.27
2017-09-08T10:45:17.580Z,7.40
2017-09-08T10:47:45.336Z,6.87
2017-09-08T10:50:13.163Z,8.00
2017-09-08T10:52:40.930Z,7.40
2017-09-08T10:55:08.704Z,6.73
2017-09-08T10:57:36.589Z,6.80
2017-09-08T11:00:04.529Z,6.73
2017-09-08T11:02:32.364Z,6.70
2017-09-08T11:05:00.126Z,6.30
2017-09-08T11:07:27.839Z,7.70
2017-09-08T11:09:55.561Z,6.80
2017-09-08T11:12:23.314Z,5.43
2017-09-08T11:14:51.027Z,5.83
2017-09-08T11:17:18.811Z,6.80
2017-09-08T11:19:46.525Z,7.70
2017-09-08T11:22:14.266Z,6.57
2017-09-08T11:24:41.992Z,6.80
2017-09-08T11:27:09.759Z,6.90
2017-09-08T11:29:37.469Z,7.70
2017-09-08T11:32:05.254Z,7.13
2017-09-08T11:34:38.542Z,7.67
2017-09-08T11:37:10.329Z,7.30
2017-09-08T11:39:38.099Z,8.10
2017-09-08T11:42:05.899Z,7.90
2017-09-08T11:44:33.652Z,7.53
2017-09-08T11:47:01.383Z,7.17
2017-09-08T11:49:29.157Z,9.03
2017-09-08T11:51:56.902Z,7.10
2017-09-08T11:54:24.693Z,7.47
2017-09-08T11:56:52.407Z,7.23
2017-09-08T11:59:20.163Z,7.13
2017-09-08T12:01:47.892Z,6.70
2017-09-08T12:04:15.655Z,7.50
2017-09-08T12:06:43.416Z,7.77
2017-09-08T12:09:11.229Z,7.23
2017-09-08T12:11:38.996Z,7.40
2017-09-08T12:14:06.728Z,7.27
2017-09-08T12:16:34.487Z,6.60
2017-09-08T12:19:02.209Z,6.93
2017-09-08T12:21:29.997Z,7.43
2017-09-08T12:23:57.728Z,6.90
2017-09-08T12:26:25.500Z,6.33
2017-09-08T12:28:53.214Z,6.37
2017-09-08T12:31:20.967Z,6.67
2017-09-08T12:33:48.701Z,5.97
2017-09-08T12:36:16.449Z,5.90
2017-09-08T12:38:44.201Z,6.13
2017-09-08T12:41:11.952Z,5.80
2017-09-08T12:43:39.686Z,6.27
2017-09-08T12:46:07.856Z,6.50
2017-09-08T12:48:36.045Z,5.80
2017-09-08T12:51:03.819Z,6.00
2017-09-08T12:53:31.566Z,6.30
2017-09-08T12:55:59.284Z,6.13
2017-09-08T12:58:27.033Z,6.00
2017-09-08T13:00:54.861Z,6.20
2017-09-08T13:03:22.653Z,6.13
2017-09-08T13:05:50.379Z,5.30
2017-09-08T13:08:18.218Z,6.03
2017-09-08T13:10:45.942Z,5.47
2017-09-08T13:13:13.718Z,6.67
2017-09-08T13:15:41.432Z,5.60
2017-09-08T13:18:09.225Z,6.50
2017-09-08T13:20:37.496Z,6.20
2017-09-08T13:23:05.505Z,5.73
2017-09-08T13:25:33.863Z,6.33
2017-09-08T13:28:01.847Z,6.70
2017-09-08T13:30:29.800Z,5.93
2017-09-08T13:32:57.753Z,6.10
2017-09-08T13:35:25.745Z,5.93
2017-09-08T13:37:53.670Z,5.53
2017-09-08T13:40:21.928Z,6.30
2017-09-08T13:42:49.878Z,5.67
2017-09-08T13:45:18.102Z,5.53
2017-09-08T13:47:46.042Z,5.60
2017-09-08T13:50:13.965Z,6.33
2017-09-08T13:52:41.832Z,6.30
2017-09-08T13:55:09.597Z,5.77
2017-09-08T13:57:37.488Z,6.10
2017-09-08T14:00:05.486Z,6.20
2017-09-08T14:02:33.556Z,5.60
2017-09-08T14:05:01.535Z,5.60
2017-09-08T14:07:29.796Z,6.23
2017-09-08T14:09:57.838Z,5.67
2017-09-08T14:12:26.172Z,6.00
2017-09-08T14:14:54.349Z,5.20
2017-09-08T14:17:22.315Z,5.00
2017-09-08T14:19:50.433Z,5.23
2017-09-08T14:22:18.565Z,5.83
2017-09-08T14:24:46.681Z,5.00
2017-09-08T14:27:14.724Z,5.53
2017-09-08T14:29:42.651Z,5.37
2017-09-08T14:32:10.414Z,5.80
2017-09-08T14:34:38.176Z,4.63
2017-09-08T14:37:05.953Z,5.40
2017-09-08T14:39:33.719Z,4.70
2017-09-08T14:42:01.582Z,5.50
2017-09-08T14:44:29.803Z,5.50
2017-09-08T14:46:57.846Z,5.30
2017-09-08T14:49:25.913Z,5.20
2017-09-08T14:51:53.990Z,5.67
2017-09-08T14:54:22.065Z,5.53
2017-09-08T14:56:50.052Z,5.30
2017-09-08T14:59:18.116Z,5.20
2017-09-08T15:01:46.192Z,5.30
2017-09-08T15:04:14.203Z,4.43
2017-09-08T15:06:42.054Z,5.10
2017-09-08T15:09:10.189Z,5.20
2017-09-08T15:11:38.160Z,5.30
2017-09-08T15:14:06.153Z,5.40
2017-09-08T15:16:34.091Z,4.83
2017-09-08T15:19:02.289Z,4.40
2017-09-08T15:21:30.307Z,4.80
2017-09-08T15:23:58.119Z,4.93
2017-09-08T15:26:25.817Z,4.70
2017-09-08T15:28:54.297Z,4.40
2017-09-08T15:31:22.252Z,5.37
2017-09-08T15:33:50.307Z,4.97
2017-09-08T15:36:18.394Z,5.10
2017-09-08T15:38:46.299Z,4.60
2017-09-08T15:41:14.789Z,4.80
2017-09-08T15:43:42.811Z,4.80
2017-09-08T15:46:10.771Z,4.70
2017-09-08T15:48:38.670Z,4.40
2017-09-08T15:51:06.638Z,5.43
2017-09-08T15:53:34.623Z,4.80
2017-09-08T15:56:02.483Z,4.17
2017-09-08T15:58:30.441Z,4.43
2017-09-08T16:00:58.251Z,4.60
2017-09-08T16:03:25.964Z,4.80
2017-09-08T16:05:53.689Z,5.00
2017-09-08T16:08:21.468Z,4.97
2017-09-08T16:10:49.713Z,4.77
2017-09-08T16:13:18.923Z,5.07
2017-09-08T16:15:46.846Z,4.70
2017-09-08T16:18:14.781Z,4.30
2017-09-08T16:20:42.887Z,5.07
2017-09-08T16:23:10.803Z,5.20
2017-09-08T16:25:38.608Z,5.40
2017-09-08T16:28:06.613Z,5.23
2017-09-08T16:30:34.492Z,5.90
2017-09-08T16:33:02.624Z,5.20
2017-09-08T16:35:30.515Z,5.10
2017-09-08T16:37:58.486Z,5.43
2017-09-08T16:40:26.382Z,5.07
2017-09-08T16:42:54.217Z,5.50
2017-09-08T16:45:22.301Z,5.17
2017-09-08T16:47:50.213Z,6.10
2017-09-08T16:50:18.074Z,5.70
2017-09-08T16:52:46.122Z,5.90
2017-09-08T16:55:14.177Z,4.57
2017-09-08T16:57:42.119Z,5.00
2017-09-08T17:00:10.241Z,5.77
2017-09-08T17:02:38.136Z,5.83
2017-09-08T17:05:06.084Z,4.80
2017-09-08T17:07:34.095Z,5.30
2017-09-08T17:10:02.204Z,4.90
2017-09-08T17:12:30.213Z,5.27
2017-09-08T17:14:58.261Z,4.80
2017-09-08T17:17:26.008Z,5.40
2017-09-08T17:19:53.733Z,4.77
2017-09-08T17:22:21.524Z,5.70
2017-09-08T17:24:49.323Z,5.20
2017-09-08T17:27:17.170Z,4.90
2017-09-08T17:29:44.902Z,5.30
2017-09-08T17:32:13.311Z,5.53
2017-09-08T17:34:41.585Z,4.90
2017-09-08T17:37:09.924Z,5.00
2017-09-08T17:39:38.034Z,5.63
2017-09-08T17:42:06.168Z,5.00
2017-09-08T17:44:34.297Z,5.80
2017-09-08T17:47:02.246Z,5.47
2017-09-08T17:49:30.257Z,5.80
2017-09-08T17:51:58.307Z,5.83
2017-09-08T17:54:26.340Z,6.23
2017-09-08T17:56:54.521Z,6.20
2017-09-08T17:59:22.685Z,5.30
2017-09-08T18:01:50.773Z,6.47
2017-09-08T18:04:18.703Z,5.97
2017-09-08T18:06:46.817Z,6.20
2017-09-08T18:09:14.729Z,5.60
2017-09-08T18:11:42.729Z,5.73
2017-09-08T18:14:12.050Z,6.20
2017-09-08T18:16:39.947Z,6.10
2017-09-08T18:19:07.813Z,6.80
2017-09-08T18:21:35.898Z,5.83
2017-09-08T18:24:04.281Z,5.77
2017-09-08T18:26:32.365Z,6.70
2017-09-08T18:29:00.478Z,6.57
2017-09-08T18:31:28.515Z,5.83
2017-09-08T18:33:56.588Z,6.90
2017-09-08T18:36:24.729Z,6.07
2017-09-08T18:38:52.672Z,6.20
2017-09-08T18:41:20.568Z,6.10
2017-09-08T18:43:48.419Z,5.87
2017-09-08T18:46:23.527Z,5.80
2017-09-08T18:48:59.218Z,5.40
2017-09-08T18:54:10.580Z,6.73
2017-09-08T18:56:44.165Z,6.90
2017-09-08T18:59:20.172Z,6.33
2017-09-08T19:01:53.720Z,6.20
2017-09-08T19:07:08.807Z,6.63
2017-09-08T19:09:43.472Z,6.90
2017-09-08T19:12:22.877Z,6.20
2017-09-08T19:14:58.339Z,6.50
2017-09-08T19:17:35.351Z,6.63
2017-09-08T19:20:09.748Z,6.47
2017-09-08T19:22:45.976Z,7.03
2017-09-08T19:25:21.979Z,5.97
2017-09-08T19:27:58.682Z,6.50
2017-09-08T19:30:35.045Z,6.43
2017-09-08T19:33:10.953Z,6.30
2017-09-08T19:35:46.989Z,6.70
2017-09-08T19:38:24.491Z,6.30
2017-09-08T19:41:01.168Z,6.43
2017-09-08T19:43:36.668Z,6.70
2017-09-08T19:46:12.215Z,6.93
2017-09-08T19:48:49.051Z,6.87
2017-09-08T19:51:22.604Z,6.47
2017-09-08T19:53:56.756Z,6.57
2017-09-08T19:56:30.073Z,6.90
2017-09-08T19:59:06.286Z,6.67
2017-09-08T20:01:41.330Z,6.70
2017-09-08T20:04:15.308Z,6.03
2017-09-08T20:06:52.153Z,5.63
2017-09-08T20:09:28.220Z,5.70
2017-09-08T20:12:04.103Z,6.60
2017-09-08T20:14:40.691Z,6.47
2017-09-08T20:17:15.441Z,6.40
2017-09-08T20:19:51.976Z,6.60
2017-09-08T20:22:25.590Z,5.97
2017-09-08T20:25:03.192Z,5.83
2017-09-08T20:27:40.046Z,5.23
2017-09-08T20:30:16.530Z,6.87
2017-09-08T20:32:51.936Z,6.40
2017-09-08T20:35:26.649Z,6.60
2017-09-08T20:38:02.800Z,6.20
2017-09-08T20:40:38.543Z,6.77
2017-09-08T20:43:13.555Z,6.70
2017-09-08T20:45:46.817Z,6.40
2017-09-08T20:48:22.334Z,6.30
2017-09-08T20:50:57.043Z,6.70
2017-09-08T20:53:32.790Z,6.90
2017-09-08T21:20:40.929Z,7.23
2017-09-08T21:23:08.615Z,7.50
2017-09-08T21:25:36.284Z,7.23
2017-09-08T21:28:03.991Z,8.07
2017-09-08T21:30:31.682Z,8.40
2017-09-08T21:32:59.374Z,7.47
2017-09-08T21:35:27.029Z,7.40
2017-09-08T21:37:54.639Z,6.73
2017-09-08T21:40:22.372Z,6.50
2017-09-08T21:42:50.006Z,7.10
2017-09-08T21:45:44.194Z,7.00
2017-09-08T21:48:11.835Z,7.20
2017-09-08T21:50:39.502Z,7.40
2017-09-08T21:53:07.111Z,7.00
2017-09-08T21:55:34.773Z,7.00
2017-09-08T21:58:02.475Z,7.47
2017-09-08T22:00:30.200Z,8.00
2017-09-08T22:02:57.908Z,7.87
2017-09-08T22:05:25.560Z,7.07
2017-09-08T22:07:53.165Z,7.83
2017-09-08T22:10:20.977Z,8.00
2017-09-08T22:12:48.674Z,7.80
2017-09-08T22:15:16.394Z,7.13
2017-09-08T22:17:44.079Z,7.70
2017-09-08T22:20:11.832Z,7.73
2017-09-08T22:22:39.504Z,7.43
2017-09-08T22:25:07.255Z,7.37
2017-09-08T22:27:34.873Z,7.60
2017-09-08T22:30:02.661Z,6.83
2017-09-08T22:32:30.363Z,7.27
2017-09-08T22:34:58.908Z,6.60
2017-09-08T22:37:26.577Z,7.07
2017-09-08T22:39:54.282Z,7.50
2017-09-08T22:42:21.968Z,8.10
2017-09-08T22:44:49.700Z,7.90
2017-09-08T22:47:17.319Z,7.60
2017-09-08T22:49:45.044Z,7.13
2017-09-08T22:52:12.714Z,6.63
2017-09-08T22:54:40.454Z,7.27
2017-09-08T22:57:08.157Z,7.37
2017-09-08T22:59:35.831Z,7.00
2017-09-08T23:02:03.574Z,7.13
2017-09-08T23:04:31.260Z,7.27
2017-09-08T23:06:58.998Z,7.30
2017-09-08T23:09:26.585Z,6.47
2017-09-08T23:11:54.339Z,6.70
2017-09-08T23:14:22.016Z,7.80
2017-09-08T23:16:49.759Z,7.30
2017-09-08T23:19:17.450Z,7.20
2017-09-08T23:21:45.171Z,7.40
2017-09-08T23:24:12.800Z,7.60
2017-09-08T23:26:40.532Z,8.03
2017-09-08T23:29:08.201Z,6.47
2017-09-08T23:31:35.982Z,6.67
2017-09-08T23:34:03.675Z,7.00
2017-09-08T23:36:31.332Z,7.50
2017-09-08T23:38:59.011Z,7.00
2017-09-08T23:41:26.739Z,7.33
2017-09-08T23:43:54.411Z,8.17
2017-09-08T23:46:22.161Z,7.80
2017-09-08T23:48:49.836Z,7.83
2017-09-08T23:51:17.552Z,9.03
2017-09-08T23:53:45.233Z,9.17
2017-09-08T23:56:12.948Z,8.87
2017-09-08T23:58:40.612Z,8.60
